sensor_id;sensor_type;location;lat;lon;timestamp;temperature;humidity
2897;DHT22;1458;49.728;9.228;2022-12-18T00:01:16;-8.40;99.90
2897;DHT22;1458;49.728;9.228;2022-12-18T00:03:44;-8.60;99.90
2897;DHT22;1458;49.728;9.228;2022-12-18T00:06:13;-8.70;99.90
2897;DHT22;1458;49.728;9.228;2022-12-18T00:08:41;-8.80;99.90
2897;DHT22;1458;49.728;9.228;2022-12-18T00:11:11;-8.50;99.90
2897;DHT22;1458;49.728;9.228;2022-12-18T00:13:40;-8.40;99.90
2897;DHT22;1458;49.728;9.228;2022-12-18T00:16:10;-8.20;99.90
2897;DHT22;1458;49.728;9.228;2022-12-18T00:18:40;-8.00;99.90
2897;DHT22;1458;49.728;9.228;2022-12-18T00:21:10;-7.90;99.90
2897;DHT22;1458;49.728;9.228;2022-12-18T00:23:39;-7.80;99.90
2897;DHT22;1458;49.728;9.228;2022-12-18T00:26:10;-7.80;99.90
2897;DHT22;1458;49.728;9.228;2022-12-18T00:28:42;-7.80;99.90
2897;DHT22;1458;49.728;9.228;2022-12-18T00:31:11;-7.70;99.90
2897;DHT22;1458;49.728;9.228;2022-12-18T00:33:41;-7.80;99.90
2897;DHT22;1458;49.728;9.228;2022-12-18T00:36:11;-7.80;99.90
2897;DHT22;1458;49.728;9.228;2022-12-18T00:38:39;-8.00;99.90
2897;DHT22;1458;49.728;9.228;2022-12-18T00:41:08;-7.90;99.90
2897;DHT22;1458;49.728;9.228;2022-12-18T00:43:38;-7.80;99.90
2897;DHT22;1458;49.728;9.228;2022-12-18T00:46:05;-8.10;99.90
2897;DHT22;1458;49.728;9.228;2022-12-18T00:48:33;-8.00;99.90
2897;DHT22;1458;49.728;9.228;2022-12-18T00:51:01;-7.80;99.90
2897;DHT22;1458;49.728;9.228;2022-12-18T00:53:29;-7.80;99.90
2897;DHT22;1458;49.728;9.228;2022-12-18T00:55:56;-7.90;99.90
2897;DHT22;1458;49.728;9.228;2022-12-18T00:58:24;-7.90;99.90
2897;DHT22;1458;49.728;9.228;2022-12-18T01:00:51;-8.00;99.90
2897;DHT22;1458;49.728;9.228;2022-12-18T01:03:18;-8.00;99.90
2897;DHT22;1458;49.728;9.228;2022-12-18T01:05:46;-8.00;99.90
2897;DHT22;1458;49.728;9.228;2022-12-18T01:08:14;-7.90;99.90
2897;DHT22;1458;49.728;9.228;2022-12-18T01:10:43;-7.90;99.90
2897;DHT22;1458;49.728;9.228;2022-12-18T01:13:10;-7.90;99.90
2897;DHT22;1458;49.728;9.228;2022-12-18T01:15:37;-7.80;99.90
2897;DHT22;1458;49.728;9.228;2022-12-18T01:18:06;-7.80;99.90
2897;DHT22;1458;49.728;9.228;2022-12-18T01:20:33;-7.70;99.90
2897;DHT22;1458;49.728;9.228;2022-12-18T01:23:00;-7.70;99.90
2897;DHT22;1458;49.728;9.228;2022-12-18T01:25:29;-7.90;99.90
2897;DHT22;1458;49.728;9.228;2022-12-18T01:27:57;-8.00;99.90
2897;DHT22;1458;49.728;9.228;2022-12-18T01:30:24;-8.00;99.90
2897;DHT22;1458;49.728;9.228;2022-12-18T01:32:52;-7.90;99.90
2897;DHT22;1458;49.728;9.228;2022-12-18T01:35:19;-7.90;99.90
2897;DHT22;1458;49.728;9.228;2022-12-18T01:37:47;-7.80;99.90
2897;DHT22;1458;49.728;9.228;2022-12-18T01:40:14;-7.80;99.90
2897;DHT22;1458;49.728;9.228;2022-12-18T01:42:43;-7.90;99.90
2897;DHT22;1458;49.728;9.228;2022-12-18T01:45:26;-8.10;99.90
2897;DHT22;1458;49.728;9.228;2022-12-18T01:47:56;-8.10;99.90
2897;DHT22;1458;49.728;9.228;2022-12-18T01:50:28;-8.20;99.90
2897;DHT22;1458;49.728;9.228;2022-12-18T01:53:01;-8.10;99.90
2897;DHT22;1458;49.728;9.228;2022-12-18T01:55:35;-8.10;99.90
2897;DHT22;1458;49.728;9.228;2022-12-18T01:58:05;-8.20;99.90
2897;DHT22;1458;49.728;9.228;2022-12-18T02:00:33;-8.00;99.90
2897;DHT22;1458;49.728;9.228;2022-12-18T02:03:00;-8.10;99.90
2897;DHT22;1458;49.728;9.228;2022-12-18T02:05:40;-8.10;99.90
2897;DHT22;1458;49.728;9.228;2022-12-18T02:08:17;-8.20;99.90
2897;DHT22;1458;49.728;9.228;2022-12-18T02:10:54;-8.00;99.90
2897;DHT22;1458;49.728;9.228;2022-12-18T02:13:32;-7.80;99.90
2897;DHT22;1458;49.728;9.228;2022-12-18T02:16:09;-7.90;99.90
2897;DHT22;1458;49.728;9.228;2022-12-18T02:18:47;-8.00;99.90
2897;DHT22;1458;49.728;9.228;2022-12-18T02:21:25;-8.00;99.90
2897;DHT22;1458;49.728;9.228;2022-12-18T02:24:11;-7.90;99.90
2897;DHT22;1458;49.728;9.228;2022-12-18T02:26:49;-8.00;99.90
2897;DHT22;1458;49.728;9.228;2022-12-18T02:29:22;-8.20;99.90
2897;DHT22;1458;49.728;9.228;2022-12-18T02:31:56;-8.20;99.90
2897;DHT22;1458;49.728;9.228;2022-12-18T02:34:29;-8.10;99.90
2897;DHT22;1458;49.728;9.228;2022-12-18T02:37:00;-8.10;99.90
2897;DHT22;1458;49.728;9.228;2022-12-18T02:39:34;-8.10;99.90
2897;DHT22;1458;49.728;9.228;2022-12-18T02:42:05;-8.10;99.90
2897;DHT22;1458;49.728;9.228;2022-12-18T02:44:34;-8.10;99.90
2897;DHT22;1458;49.728;9.228;2022-12-18T02:47:03;-8.10;99.90
2897;DHT22;1458;49.728;9.228;2022-12-18T02:49:34;-8.20;99.90
2897;DHT22;1458;49.728;9.228;2022-12-18T02:52:12;-8.10;99.90
2897;DHT22;1458;49.728;9.228;2022-12-18T02:54:54;-8.10;99.90
2897;DHT22;1458;49.728;9.228;2022-12-18T02:57:33;-8.10;99.90
2897;DHT22;1458;49.728;9.228;2022-12-18T03:00:06;-8.10;99.90
2897;DHT22;1458;49.728;9.228;2022-12-18T03:02:51;-8.10;99.90
2897;DHT22;1458;49.728;9.228;2022-12-18T03:05:27;-8.10;99.90
2897;DHT22;1458;49.728;9.228;2022-12-18T03:07:59;-8.10;99.90
2897;DHT22;1458;49.728;9.228;2022-12-18T03:10:37;-8.00;99.90
2897;DHT22;1458;49.728;9.228;2022-12-18T03:13:13;-7.90;99.90
2897;DHT22;1458;49.728;9.228;2022-12-18T03:15:45;-8.10;99.90
2897;DHT22;1458;49.728;9.228;2022-12-18T03:18:17;-8.20;99.90
2897;DHT22;1458;49.728;9.228;2022-12-18T03:20:49;-8.20;99.90
2897;DHT22;1458;49.728;9.228;2022-12-18T03:23:22;-8.20;99.90
2897;DHT22;1458;49.728;9.228;2022-12-18T03:25:56;-8.30;99.90
2897;DHT22;1458;49.728;9.228;2022-12-18T03:28:28;-8.30;99.90
2897;DHT22;1458;49.728;9.228;2022-12-18T03:31:00;-8.50;99.90
2897;DHT22;1458;49.728;9.228;2022-12-18T03:33:35;-8.40;99.90
2897;DHT22;1458;49.728;9.228;2022-12-18T03:36:06;-8.30;99.90
2897;DHT22;1458;49.728;9.228;2022-12-18T03:38:34;-8.20;99.90
2897;DHT22;1458;49.728;9.228;2022-12-18T03:41:09;-8.20;99.90
2897;DHT22;1458;49.728;9.228;2022-12-18T03:44:05;-8.20;99.70
2897;DHT22;1458;49.728;9.228;2022-12-18T03:46:45;-8.30;99.60
2897;DHT22;1458;49.728;9.228;2022-12-18T03:49:22;-8.30;99.60
2897;DHT22;1458;49.728;9.228;2022-12-18T03:52:06;-8.20;99.80
2897;DHT22;1458;49.728;9.228;2022-12-18T03:54:39;-8.30;99.90
2897;DHT22;1458;49.728;9.228;2022-12-18T03:57:14;-8.30;99.90
2897;DHT22;1458;49.728;9.228;2022-12-18T03:59:48;-8.30;99.90
2897;DHT22;1458;49.728;9.228;2022-12-18T04:02:19;-8.30;99.80
2897;DHT22;1458;49.728;9.228;2022-12-18T04:04:48;-8.40;99.50
2897;DHT22;1458;49.728;9.228;2022-12-18T04:07:17;-8.50;99.90
2897;DHT22;1458;49.728;9.228;2022-12-18T04:09:46;-8.60;99.90
2897;DHT22;1458;49.728;9.228;2022-12-18T04:12:15;-8.60;99.90
2897;DHT22;1458;49.728;9.228;2022-12-18T04:14:46;-8.70;99.90
2897;DHT22;1458;49.728;9.228;2022-12-18T04:17:14;-8.50;99.90
2897;DHT22;1458;49.728;9.228;2022-12-18T04:19:42;-8.60;99.90
2897;DHT22;1458;49.728;9.228;2022-12-18T04:22:10;-8.60;99.90
2897;DHT22;1458;49.728;9.228;2022-12-18T04:24:42;-8.60;99.90
2897;DHT22;1458;49.728;9.228;2022-12-18T04:27:18;-8.70;99.90
2897;DHT22;1458;49.728;9.228;2022-12-18T04:29:50;-8.80;99.90
2897;DHT22;1458;49.728;9.228;2022-12-18T04:32:17;-8.90;99.90
2897;DHT22;1458;49.728;9.228;2022-12-18T04:34:46;-8.60;99.90
2897;DHT22;1458;49.728;9.228;2022-12-18T04:37:14;-8.50;99.90
2897;DHT22;1458;49.728;9.228;2022-12-18T04:39:43;-8.30;99.90
2897;DHT22;1458;49.728;9.228;2022-12-18T04:42:19;-8.50;99.90
2897;DHT22;1458;49.728;9.228;2022-12-18T04:44:46;-8.20;99.90
2897;DHT22;1458;49.728;9.228;2022-12-18T04:47:15;-8.20;99.90
2897;DHT22;1458;49.728;9.228;2022-12-18T04:49:42;-8.20;99.90
2897;DHT22;1458;49.728;9.228;2022-12-18T04:52:10;-8.20;99.90
2897;DHT22;1458;49.728;9.228;2022-12-18T04:54:37;-8.30;99.90
2897;DHT22;1458;49.728;9.228;2022-12-18T04:57:04;-8.30;99.90
2897;DHT22;1458;49.728;9.228;2022-12-18T04:59:32;-8.50;99.90
2897;DHT22;1458;49.728;9.228;2022-12-18T05:01:59;-8.60;99.90
2897;DHT22;1458;49.728;9.228;2022-12-18T05:04:28;-8.60;99.90
2897;DHT22;1458;49.728;9.228;2022-12-18T05:06:55;-8.60;99.90
2897;DHT22;1458;49.728;9.228;2022-12-18T05:09:23;-8.60;99.90
2897;DHT22;1458;49.728;9.228;2022-12-18T05:11:50;-8.70;99.90
2897;DHT22;1458;49.728;9.228;2022-12-18T05:14:18;-8.50;99.90
2897;DHT22;1458;49.728;9.228;2022-12-18T05:16:45;-8.40;99.90
2897;DHT22;1458;49.728;9.228;2022-12-18T05:19:13;-8.20;99.90
2897;DHT22;1458;49.728;9.228;2022-12-18T05:21:42;-8.00;99.90
2897;DHT22;1458;49.728;9.228;2022-12-18T05:24:09;-7.90;99.90
2897;DHT22;1458;49.728;9.228;2022-12-18T05:26:37;-7.90;99.90
2897;DHT22;1458;49.728;9.228;2022-12-18T05:29:04;-7.90;99.90
2897;DHT22;1458;49.728;9.228;2022-12-18T05:31:31;-7.90;99.90
2897;DHT22;1458;49.728;9.228;2022-12-18T05:33:59;-8.00;99.90
2897;DHT22;1458;49.728;9.228;2022-12-18T05:36:26;-7.80;99.90
2897;DHT22;1458;49.728;9.228;2022-12-18T05:38:55;-7.60;99.90
2897;DHT22;1458;49.728;9.228;2022-12-18T05:41:22;-7.60;99.90
2897;DHT22;1458;49.728;9.228;2022-12-18T05:43:49;-7.80;99.90
2897;DHT22;1458;49.728;9.228;2022-12-18T05:46:17;-7.80;99.90
2897;DHT22;1458;49.728;9.228;2022-12-18T05:48:45;-7.90;99.90
2897;DHT22;1458;49.728;9.228;2022-12-18T05:51:15;-7.90;99.90
2897;DHT22;1458;49.728;9.228;2022-12-18T05:53:44;-7.80;99.90
2897;DHT22;1458;49.728;9.228;2022-12-18T05:56:14;-7.70;99.90
2897;DHT22;1458;49.728;9.228;2022-12-18T05:58:44;-7.70;99.90
2897;DHT22;1458;49.728;9.228;2022-12-18T06:01:14;-7.50;99.90
2897;DHT22;1458;49.728;9.228;2022-12-18T06:03:43;-7.40;99.90
2897;DHT22;1458;49.728;9.228;2022-12-18T06:06:15;-7.40;99.90
2897;DHT22;1458;49.728;9.228;2022-12-18T06:08:43;-7.40;99.90
2897;DHT22;1458;49.728;9.228;2022-12-18T06:11:10;-7.40;99.90
2897;DHT22;1458;49.728;9.228;2022-12-18T06:13:39;-7.30;99.90
2897;DHT22;1458;49.728;9.228;2022-12-18T06:16:07;-7.50;99.90
2897;DHT22;1458;49.728;9.228;2022-12-18T06:18:37;-7.50;99.90
2897;DHT22;1458;49.728;9.228;2022-12-18T06:21:05;-7.40;99.90
2897;DHT22;1458;49.728;9.228;2022-12-18T06:23:32;-7.50;99.90
2897;DHT22;1458;49.728;9.228;2022-12-18T06:26:04;-7.60;99.90
2897;DHT22;1458;49.728;9.228;2022-12-18T06:28:32;-7.60;99.90
2897;DHT22;1458;49.728;9.228;2022-12-18T06:31:02;-7.50;99.90
2897;DHT22;1458;49.728;9.228;2022-12-18T06:33:30;-7.50;99.90
2897;DHT22;1458;49.728;9.228;2022-12-18T06:36:00;-7.50;99.90
2897;DHT22;1458;49.728;9.228;2022-12-18T06:38:28;-7.40;99.90
2897;DHT22;1458;49.728;9.228;2022-12-18T06:40:55;-7.50;99.90
2897;DHT22;1458;49.728;9.228;2022-12-18T06:43:23;-7.30;99.90
2897;DHT22;1458;49.728;9.228;2022-12-18T06:45:51;-7.30;99.90
2897;DHT22;1458;49.728;9.228;2022-12-18T06:48:20;-7.40;99.90
2897;DHT22;1458;49.728;9.228;2022-12-18T06:50:48;-7.40;99.90
2897;DHT22;1458;49.728;9.228;2022-12-18T06:53:15;-7.30;99.90
2897;DHT22;1458;49.728;9.228;2022-12-18T06:55:43;-7.10;99.90
2897;DHT22;1458;49.728;9.228;2022-12-18T06:58:10;-7.20;99.90
2897;DHT22;1458;49.728;9.228;2022-12-18T07:00:37;-7.10;99.90
2897;DHT22;1458;49.728;9.228;2022-12-18T07:03:05;-7.20;99.90
2897;DHT22;1458;49.728;9.228;2022-12-18T07:05:34;-7.30;99.90
2897;DHT22;1458;49.728;9.228;2022-12-18T07:08:02;-7.20;99.90
2897;DHT22;1458;49.728;9.228;2022-12-18T07:10:29;-7.20;99.90
2897;DHT22;1458;49.728;9.228;2022-12-18T07:12:56;-7.30;99.90
2897;DHT22;1458;49.728;9.228;2022-12-18T07:15:24;-7.40;99.90
2897;DHT22;1458;49.728;9.228;2022-12-18T07:17:51;-7.40;99.90
2897;DHT22;1458;49.728;9.228;2022-12-18T07:20:18;-7.50;99.90
2897;DHT22;1458;49.728;9.228;2022-12-18T07:22:47;-7.40;99.90
2897;DHT22;1458;49.728;9.228;2022-12-18T07:25:14;-7.50;99.90
2897;DHT22;1458;49.728;9.228;2022-12-18T07:27:42;-7.40;99.90
2897;DHT22;1458;49.728;9.228;2022-12-18T07:30:10;-7.40;99.90
2897;DHT22;1458;49.728;9.228;2022-12-18T07:32:38;-7.30;99.90
2897;DHT22;1458;49.728;9.228;2022-12-18T07:35:06;-7.20;99.90
2897;DHT22;1458;49.728;9.228;2022-12-18T07:37:33;-7.40;99.90
2897;DHT22;1458;49.728;9.228;2022-12-18T07:40:02;-7.30;99.90
2897;DHT22;1458;49.728;9.228;2022-12-18T07:42:30;-7.20;99.90
2897;DHT22;1458;49.728;9.228;2022-12-18T07:44:58;-7.30;99.90
2897;DHT22;1458;49.728;9.228;2022-12-18T07:47:25;-7.30;99.90
2897;DHT22;1458;49.728;9.228;2022-12-18T07:49:53;-7.30;99.90
2897;DHT22;1458;49.728;9.228;2022-12-18T07:52:20;-7.30;99.90
2897;DHT22;1458;49.728;9.228;2022-12-18T07:54:48;-7.30;99.90
2897;DHT22;1458;49.728;9.228;2022-12-18T07:57:17;-7.20;99.90
2897;DHT22;1458;49.728;9.228;2022-12-18T07:59:44;-7.20;99.90
2897;DHT22;1458;49.728;9.228;2022-12-18T08:02:12;-7.30;99.90
2897;DHT22;1458;49.728;9.228;2022-12-18T08:04:39;-7.30;99.90
2897;DHT22;1458;49.728;9.228;2022-12-18T08:07:06;-7.40;99.90
2897;DHT22;1458;49.728;9.228;2022-12-18T08:09:34;-7.30;99.90
2897;DHT22;1458;49.728;9.228;2022-12-18T08:12:01;-7.30;99.90
2897;DHT22;1458;49.728;9.228;2022-12-18T08:14:30;-7.40;99.90
2897;DHT22;1458;49.728;9.228;2022-12-18T08:16:57;-7.40;99.90
2897;DHT22;1458;49.728;9.228;2022-12-18T08:19:25;-7.30;99.90
2897;DHT22;1458;49.728;9.228;2022-12-18T08:21:52;-7.30;99.90
2897;DHT22;1458;49.728;9.228;2022-12-18T08:24:19;-7.20;99.90
2897;DHT22;1458;49.728;9.228;2022-12-18T08:26:47;-7.10;99.90
2897;DHT22;1458;49.728;9.228;2022-12-18T08:29:14;-6.90;99.90
2897;DHT22;1458;49.728;9.228;2022-12-18T08:31:43;-6.70;98.80
2897;DHT22;1458;49.728;9.228;2022-12-18T08:34:10;-6.60;98.50
2897;DHT22;1458;49.728;9.228;2022-12-18T08:36:38;-6.40;97.70
2897;DHT22;1458;49.728;9.228;2022-12-18T08:39:05;-6.30;96.80
2897;DHT22;1458;49.728;9.228;2022-12-18T08:41:32;-6.30;96.50
2897;DHT22;1458;49.728;9.228;2022-12-18T08:44:00;-6.20;96.80
2897;DHT22;1458;49.728;9.228;2022-12-18T08:46:46;-6.30;96.40
2897;DHT22;1458;49.728;9.228;2022-12-18T08:49:13;-6.40;96.50
2897;DHT22;1458;49.728;9.228;2022-12-18T08:51:41;-6.30;97.00
2897;DHT22;1458;49.728;9.228;2022-12-18T08:54:11;-6.20;96.80
2897;DHT22;1458;49.728;9.228;2022-12-18T08:56:39;-6.00;96.60
2897;DHT22;1458;49.728;9.228;2022-12-18T08:59:06;-6.00;96.30
2897;DHT22;1458;49.728;9.228;2022-12-18T09:01:35;-5.90;96.60
2897;DHT22;1458;49.728;9.228;2022-12-18T09:04:04;-5.90;96.50
2897;DHT22;1458;49.728;9.228;2022-12-18T09:06:31;-5.90;96.00
2897;DHT22;1458;49.728;9.228;2022-12-18T09:08:59;-5.60;96.40
2897;DHT22;1458;49.728;9.228;2022-12-18T09:11:27;-5.50;96.10
2897;DHT22;1458;49.728;9.228;2022-12-18T09:13:56;-5.50;94.90
2897;DHT22;1458;49.728;9.228;2022-12-18T09:16:25;-5.30;95.00
2897;DHT22;1458;49.728;9.228;2022-12-18T09:18:54;-5.30;95.00
2897;DHT22;1458;49.728;9.228;2022-12-18T09:21:28;-5.50;94.90
2897;DHT22;1458;49.728;9.228;2022-12-18T09:23:56;-5.30;94.70
2897;DHT22;1458;49.728;9.228;2022-12-18T09:26:25;-5.10;94.70
2897;DHT22;1458;49.728;9.228;2022-12-18T09:28:53;-5.20;94.40
2897;DHT22;1458;49.728;9.228;2022-12-18T09:31:23;-4.80;94.30
2897;DHT22;1458;49.728;9.228;2022-12-18T09:33:50;-5.00;93.50
2897;DHT22;1458;49.728;9.228;2022-12-18T09:36:18;-5.10;93.70
2897;DHT22;1458;49.728;9.228;2022-12-18T09:38:47;-5.10;94.20
2897;DHT22;1458;49.728;9.228;2022-12-18T09:41:26;-4.90;94.10
2897;DHT22;1458;49.728;9.228;2022-12-18T09:44:05;-5.10;94.00
2897;DHT22;1458;49.728;9.228;2022-12-18T09:46:42;-4.90;94.30
2897;DHT22;1458;49.728;9.228;2022-12-18T09:49:16;-4.80;94.30
2897;DHT22;1458;49.728;9.228;2022-12-18T09:51:47;-4.60;94.30
2897;DHT22;1458;49.728;9.228;2022-12-18T09:54:22;-4.70;93.70
2897;DHT22;1458;49.728;9.228;2022-12-18T09:56:53;-4.80;94.30
2897;DHT22;1458;49.728;9.228;2022-12-18T09:59:24;-4.70;94.00
2897;DHT22;1458;49.728;9.228;2022-12-18T10:01:54;-4.60;94.30
2897;DHT22;1458;49.728;9.228;2022-12-18T10:04:21;-4.40;94.40
2897;DHT22;1458;49.728;9.228;2022-12-18T10:06:52;-4.40;94.40
2897;DHT22;1458;49.728;9.228;2022-12-18T10:09:30;-4.10;94.40
2897;DHT22;1458;49.728;9.228;2022-12-18T10:12:07;-4.00;93.70
2897;DHT22;1458;49.728;9.228;2022-12-18T10:14:42;-4.10;92.80
2897;DHT22;1458;49.728;9.228;2022-12-18T10:17:21;-4.00;93.60
2897;DHT22;1458;49.728;9.228;2022-12-18T10:19:58;-3.80;93.50
2897;DHT22;1458;49.728;9.228;2022-12-18T10:22:43;-3.80;93.40
2897;DHT22;1458;49.728;9.228;2022-12-18T10:25:23;-3.80;93.00
2897;DHT22;1458;49.728;9.228;2022-12-18T10:27:56;-3.60;93.50
2897;DHT22;1458;49.728;9.228;2022-12-18T10:30:25;-3.70;93.30
2897;DHT22;1458;49.728;9.228;2022-12-18T10:32:53;-3.80;93.20
2897;DHT22;1458;49.728;9.228;2022-12-18T10:35:23;-3.60;93.60
2897;DHT22;1458;49.728;9.228;2022-12-18T10:38:06;-3.70;93.30
2897;DHT22;1458;49.728;9.228;2022-12-18T10:40:51;-3.40;93.20
2897;DHT22;1458;49.728;9.228;2022-12-18T10:43:22;-3.30;93.20
2897;DHT22;1458;49.728;9.228;2022-12-18T10:46:12;-3.50;93.00
2897;DHT22;1458;49.728;9.228;2022-12-18T10:48:50;-3.30;93.00
2897;DHT22;1458;49.728;9.228;2022-12-18T10:51:21;-3.30;93.70
2897;DHT22;1458;49.728;9.228;2022-12-18T10:53:58;-3.20;93.00
2897;DHT22;1458;49.728;9.228;2022-12-18T10:56:30;-3.20;93.20
2897;DHT22;1458;49.728;9.228;2022-12-18T10:59:01;-3.00;93.20
2897;DHT22;1458;49.728;9.228;2022-12-18T11:01:46;-3.00;93.20
2897;DHT22;1458;49.728;9.228;2022-12-18T11:04:18;-3.00;93.00
2897;DHT22;1458;49.728;9.228;2022-12-18T11:06:56;-3.30;92.90
2897;DHT22;1458;49.728;9.228;2022-12-18T11:09:26;-3.30;93.20
2897;DHT22;1458;49.728;9.228;2022-12-18T11:11:56;-3.10;93.20
2897;DHT22;1458;49.728;9.228;2022-12-18T11:14:26;-3.00;93.20
2897;DHT22;1458;49.728;9.228;2022-12-18T11:16:55;-2.80;93.10
2897;DHT22;1458;49.728;9.228;2022-12-18T11:19:33;-2.70;93.40
2897;DHT22;1458;49.728;9.228;2022-12-18T11:22:03;-2.60;92.50
2897;DHT22;1458;49.728;9.228;2022-12-18T11:24:53;-2.70;92.80
2897;DHT22;1458;49.728;9.228;2022-12-18T11:27:23;-2.80;93.30
2897;DHT22;1458;49.728;9.228;2022-12-18T11:29:51;-2.60;92.70
2897;DHT22;1458;49.728;9.228;2022-12-18T11:32:27;-2.40;93.30
2897;DHT22;1458;49.728;9.228;2022-12-18T11:35:04;-2.40;92.70
2897;DHT22;1458;49.728;9.228;2022-12-18T11:37:39;-2.40;92.80
2897;DHT22;1458;49.728;9.228;2022-12-18T11:40:13;-2.20;92.40
2897;DHT22;1458;49.728;9.228;2022-12-18T11:42:47;-2.00;91.60
2897;DHT22;1458;49.728;9.228;2022-12-18T11:45:26;-1.90;92.00
2897;DHT22;1458;49.728;9.228;2022-12-18T11:48:00;-1.90;91.30
2897;DHT22;1458;49.728;9.228;2022-12-18T11:50:33;-2.10;91.90
2897;DHT22;1458;49.728;9.228;2022-12-18T11:53:11;-2.30;92.00
2897;DHT22;1458;49.728;9.228;2022-12-18T11:55:43;-2.20;92.20
2897;DHT22;1458;49.728;9.228;2022-12-18T11:58:27;-2.20;92.10
2897;DHT22;1458;49.728;9.228;2022-12-18T12:01:24;-2.00;92.10
2897;DHT22;1458;49.728;9.228;2022-12-18T12:04:19;-2.00;92.10
2897;DHT22;1458;49.728;9.228;2022-12-18T12:07:04;-1.90;92.10
2897;DHT22;1458;49.728;9.228;2022-12-18T12:09:45;-1.70;91.70
2897;DHT22;1458;49.728;9.228;2022-12-18T12:12:29;-1.70;91.70
2897;DHT22;1458;49.728;9.228;2022-12-18T12:15:21;-1.80;91.70
2897;DHT22;1458;49.728;9.228;2022-12-18T12:17:59;-1.90;92.20
2897;DHT22;1458;49.728;9.228;2022-12-18T12:20:42;-1.80;92.10
2897;DHT22;1458;49.728;9.228;2022-12-18T12:23:20;-1.80;92.30
2897;DHT22;1458;49.728;9.228;2022-12-18T12:25:57;-1.90;92.70
2897;DHT22;1458;49.728;9.228;2022-12-18T12:28:43;-1.80;92.20
2897;DHT22;1458;49.728;9.228;2022-12-18T12:31:23;-1.70;92.40
2897;DHT22;1458;49.728;9.228;2022-12-18T12:34:13;-1.50;92.40
2897;DHT22;1458;49.728;9.228;2022-12-18T12:36:55;-1.70;92.20
2897;DHT22;1458;49.728;9.228;2022-12-18T12:39:31;-1.70;92.70
2897;DHT22;1458;49.728;9.228;2022-12-18T12:42:02;-1.60;92.70
2897;DHT22;1458;49.728;9.228;2022-12-18T12:44:53;-1.70;92.70
2897;DHT22;1458;49.728;9.228;2022-12-18T12:47:27;-1.70;93.00
2897;DHT22;1458;49.728;9.228;2022-12-18T12:50:01;-1.80;92.70
2897;DHT22;1458;49.728;9.228;2022-12-18T12:52:33;-1.60;92.80
2897;DHT22;1458;49.728;9.228;2022-12-18T12:55:04;-1.60;93.00
2897;DHT22;1458;49.728;9.228;2022-12-18T12:57:42;-1.60;92.50
2897;DHT22;1458;49.728;9.228;2022-12-18T13:00:15;-1.60;93.10
2897;DHT22;1458;49.728;9.228;2022-12-18T13:02:51;-1.60;93.00
2897;DHT22;1458;49.728;9.228;2022-12-18T13:05:25;-1.50;92.20
2897;DHT22;1458;49.728;9.228;2022-12-18T13:07:59;-1.70;92.60
2897;DHT22;1458;49.728;9.228;2022-12-18T13:10:33;-1.70;92.80
2897;DHT22;1458;49.728;9.228;2022-12-18T13:13:05;-1.70;93.20
2897;DHT22;1458;49.728;9.228;2022-12-18T13:15:38;-1.60;93.00
2897;DHT22;1458;49.728;9.228;2022-12-18T13:18:20;-1.50;93.50
2897;DHT22;1458;49.728;9.228;2022-12-18T13:20:50;-1.50;93.20
2897;DHT22;1458;49.728;9.228;2022-12-18T13:23:33;-1.50;93.20
2897;DHT22;1458;49.728;9.228;2022-12-18T13:26:32;-1.60;93.10
2897;DHT22;1458;49.728;9.228;2022-12-18T13:29:00;-1.60;93.20
2897;DHT22;1458;49.728;9.228;2022-12-18T13:34:49;-1.60;93.80
2897;DHT22;1458;49.728;9.228;2022-12-18T13:37:55;-1.40;93.40
2897;DHT22;1458;49.728;9.228;2022-12-18T13:40:54;-1.40;93.30
2897;DHT22;1458;49.728;9.228;2022-12-18T13:43:28;-1.40;93.40
2897;DHT22;1458;49.728;9.228;2022-12-18T13:46:23;-1.40;93.00
2897;DHT22;1458;49.728;9.228;2022-12-18T13:48:55;-1.50;94.00
2897;DHT22;1458;49.728;9.228;2022-12-18T13:51:26;-1.50;93.80
2897;DHT22;1458;49.728;9.228;2022-12-18T13:53:58;-1.60;93.80
2897;DHT22;1458;49.728;9.228;2022-12-18T13:56:29;-1.50;93.70
2897;DHT22;1458;49.728;9.228;2022-12-18T13:59:22;-1.50;93.60
2897;DHT22;1458;49.728;9.228;2022-12-18T14:01:53;-1.40;93.90
2897;DHT22;1458;49.728;9.228;2022-12-18T14:04:24;-1.40;93.80
2897;DHT22;1458;49.728;9.228;2022-12-18T14:06:57;-1.40;93.80
2897;DHT22;1458;49.728;9.228;2022-12-18T14:09:31;-1.30;93.60
2897;DHT22;1458;49.728;9.228;2022-12-18T14:12:02;-1.20;93.60
2897;DHT22;1458;49.728;9.228;2022-12-18T14:14:49;-1.20;93.50
2897;DHT22;1458;49.728;9.228;2022-12-18T14:17:18;-1.30;93.40
2897;DHT22;1458;49.728;9.228;2022-12-18T14:19:47;-1.40;93.50
2897;DHT22;1458;49.728;9.228;2022-12-18T14:22:19;-1.30;94.00
2897;DHT22;1458;49.728;9.228;2022-12-18T14:25:10;-1.40;94.00
2897;DHT22;1458;49.728;9.228;2022-12-18T14:27:42;-1.30;94.00
2897;DHT22;1458;49.728;9.228;2022-12-18T14:30:27;-1.30;93.90
2897;DHT22;1458;49.728;9.228;2022-12-18T14:33:03;-1.50;94.20
2897;DHT22;1458;49.728;9.228;2022-12-18T14:35:32;-1.40;94.50
2897;DHT22;1458;49.728;9.228;2022-12-18T14:38:20;-1.40;94.50
2897;DHT22;1458;49.728;9.228;2022-12-18T14:40:53;-1.50;94.70
2897;DHT22;1458;49.728;9.228;2022-12-18T14:43:22;-1.50;94.60
2897;DHT22;1458;49.728;9.228;2022-12-18T14:45:50;-1.60;94.90
2897;DHT22;1458;49.728;9.228;2022-12-18T14:48:19;-1.60;95.00
2897;DHT22;1458;49.728;9.228;2022-12-18T14:50:59;-1.60;95.10
2897;DHT22;1458;49.728;9.228;2022-12-18T14:53:41;-1.60;94.90
2897;DHT22;1458;49.728;9.228;2022-12-18T14:56:15;-1.80;95.20
2897;DHT22;1458;49.728;9.228;2022-12-18T14:58:46;-1.90;95.40
2897;DHT22;1458;49.728;9.228;2022-12-18T15:01:19;-1.90;95.60
2897;DHT22;1458;49.728;9.228;2022-12-18T15:03:48;-1.90;96.00
2897;DHT22;1458;49.728;9.228;2022-12-18T15:06:17;-1.90;96.00
2897;DHT22;1458;49.728;9.228;2022-12-18T15:08:51;-2.10;96.40
2897;DHT22;1458;49.728;9.228;2022-12-18T15:11:45;-2.10;96.90
2897;DHT22;1458;49.728;9.228;2022-12-18T15:14:34;-2.20;97.20
2897;DHT22;1458;49.728;9.228;2022-12-18T15:17:14;-2.20;97.30
2897;DHT22;1458;49.728;9.228;2022-12-18T15:19:44;-2.20;97.40
2897;DHT22;1458;49.728;9.228;2022-12-18T15:22:18;-2.20;98.10
2897;DHT22;1458;49.728;9.228;2022-12-18T15:24:50;-2.20;98.30
2897;DHT22;1458;49.728;9.228;2022-12-18T15:27:23;-2.20;98.10
2897;DHT22;1458;49.728;9.228;2022-12-18T15:30:16;-2.20;98.30
2897;DHT22;1458;49.728;9.228;2022-12-18T15:33:23;-2.20;98.20
2897;DHT22;1458;49.728;9.228;2022-12-18T15:35:56;-2.20;98.50
2897;DHT22;1458;49.728;9.228;2022-12-18T15:38:24;-2.20;98.70
2897;DHT22;1458;49.728;9.228;2022-12-18T15:40:54;-2.20;98.60
2897;DHT22;1458;49.728;9.228;2022-12-18T15:43:22;-2.10;98.70
2897;DHT22;1458;49.728;9.228;2022-12-18T15:46:03;-2.20;98.60
2897;DHT22;1458;49.728;9.228;2022-12-18T15:48:33;-2.40;98.60
2897;DHT22;1458;49.728;9.228;2022-12-18T15:51:01;-2.40;99.50
2897;DHT22;1458;49.728;9.228;2022-12-18T15:53:32;-2.20;99.70
2897;DHT22;1458;49.728;9.228;2022-12-18T15:56:01;-2.30;99.80
2897;DHT22;1458;49.728;9.228;2022-12-18T15:58:46;-2.10;99.70
2897;DHT22;1458;49.728;9.228;2022-12-18T16:01:14;-2.10;99.80
2897;DHT22;1458;49.728;9.228;2022-12-18T16:03:44;-2.10;99.90
2897;DHT22;1458;49.728;9.228;2022-12-18T16:06:11;-2.10;99.90
2897;DHT22;1458;49.728;9.228;2022-12-18T16:08:39;-2.00;99.80
2897;DHT22;1458;49.728;9.228;2022-12-18T16:11:20;-2.10;99.70
2897;DHT22;1458;49.728;9.228;2022-12-18T16:14:15;-2.20;99.80
2897;DHT22;1458;49.728;9.228;2022-12-18T16:16:44;-2.10;99.90
2897;DHT22;1458;49.728;9.228;2022-12-18T16:19:12;-2.10;99.80
2897;DHT22;1458;49.728;9.228;2022-12-18T16:21:40;-2.20;99.70
2897;DHT22;1458;49.728;9.228;2022-12-18T16:24:13;-2.10;99.80
2897;DHT22;1458;49.728;9.228;2022-12-18T16:26:44;-2.10;99.80
2897;DHT22;1458;49.728;9.228;2022-12-18T16:29:11;-2.20;99.90
2897;DHT22;1458;49.728;9.228;2022-12-18T16:31:39;-2.20;99.90
2897;DHT22;1458;49.728;9.228;2022-12-18T16:34:20;-2.20;99.90
2897;DHT22;1458;49.728;9.228;2022-12-18T16:36:49;-2.20;99.80
2897;DHT22;1458;49.728;9.228;2022-12-18T16:39:17;-2.10;99.60